Indianapolis, IN (46231)

8:42 PM EST on February 12, 2016 (GMT -0500)
BAYVIEW WX | | Change Station
CLOSE
Current Station
Personal Weather Station
Location: Plainfield, IN
Elevation: 807 ft
Nearby Weather Stations

Elev 807 ft 39.73 °N, 86.36 °W | Updated 11 minutes ago

Light Snow
Light Snow
21.4 °F
Feels Like 8 °F
N
16.0
Wind Variable Wind from NNW
Gusts 25.0 mph

Today
High -- | Low -- °F
--% Chance of Precip.
Yesterday
High -- | Low -- °F
Precip. -- in
Pressure 30.27 in
Visibility 7.0 miles
Clouds Mostly Cloudy 4700 ft
Windchill 8 °F
Dew Point 5 °F
Humidity 49%
Rainfall 0.00 in
Snow Depth Not available.
7:42 AM 6:17 PM
Waxing Crescent, 25% visible
METAR KIND 130054Z 31018KT 7SM -SN BKN047 M05/M12 A3023 RMK AO2 SNB52 SLP249 P0000 T10501122
Pressure 30.27 in
Visibility 7.0 miles
Clouds Mostly Cloudy 4700 ft
Windchill 8 °F
Dew Point 5 °F
Humidity 49%
Rainfall 0.00 in
Snow Depth Not available.
7:42 AM 6:17 PM
Waxing Crescent, 25% visible
METAR KIND 130054Z 31018KT 7SM -SN BKN047 M05/M12 A3023 RMK AO2 SNB52 SLP249 P0000 T10501122

10-Day Weather Forecast

Almanac

Astronomy

Feb. 12, 2016 Rise Set
Actual Time
Civil Twilight
Nautical Twilight
Astronomical Twilight
Moon
Length of Visible Light
Length of Day
Tomorrow will be .
, % of the Moon is Illuminated

Today's Extremes

State Highs State Lows

Community

WunderPhotos

Upload Photos

1,892,459 photos uploaded!

WunderBlog® & News

Nearby

Air Quality

  Air Quality AQ Index Pollutant
Not available.

Snow Depth

Station Depth Elevation

Earthquake Activity

City Distance Mag. Time & Date
Minimum magnitude displayed is 2.5.

Coastal Water Temperatures

Place Temperature

Stations

Nearby Weather Stations

Station Location Temp. Windchill Dew Point Humidity Wind Precip. Elev Updated Type
                   

Watches & Warnings

There are currently no watches in effect.